sensor_id;sensor_type;location;lat;lon;timestamp;P1;durP1;ratioP1;P2;durP2;ratioP2
41881;SDS011;27562;47.524;12.404;2023-04-10T00:00:59;21.67;;;9.00;;
41881;SDS011;27562;47.524;12.404;2023-04-10T00:03:25;16.40;;;7.43;;
41881;SDS011;27562;47.524;12.404;2023-04-10T00:05:52;12.15;;;5.78;;
41881;SDS011;27562;47.524;12.404;2023-04-10T00:08:19;11.23;;;6.10;;
41881;SDS011;27562;47.524;12.404;2023-04-10T00:10:48;10.45;;;6.00;;
41881;SDS011;27562;47.524;12.404;2023-04-10T00:13:14;13.18;;;7.22;;
41881;SDS011;27562;47.524;12.404;2023-04-10T00:15:41;15.85;;;9.13;;
41881;SDS011;27562;47.524;12.404;2023-04-10T00:18:07;20.98;;;10.95;;
41881;SDS011;27562;47.524;12.404;2023-04-10T00:20:32;21.90;;;11.65;;
41881;SDS011;27562;47.524;12.404;2023-04-10T00:22:58;20.58;;;10.27;;
41881;SDS011;27562;47.524;12.404;2023-04-10T00:25:24;16.42;;;8.90;;
41881;SDS011;27562;47.524;12.404;2023-04-10T00:27:51;12.68;;;7.47;;
41881;SDS011;27562;47.524;12.404;2023-04-10T00:30:18;14.23;;;7.07;;
41881;SDS011;27562;47.524;12.404;2023-04-10T00:32:45;11.75;;;6.72;;
41881;SDS011;27562;47.524;12.404;2023-04-10T00:35:10;11.27;;;6.35;;
41881;SDS011;27562;47.524;12.404;2023-04-10T00:37:36;12.07;;;6.53;;
41881;SDS011;27562;47.524;12.404;2023-04-10T00:40:03;11.07;;;6.03;;
41881;SDS011;27562;47.524;12.404;2023-04-10T00:42:30;10.80;;;6.28;;
41881;SDS011;27562;47.524;12.404;2023-04-10T00:44:56;10.73;;;5.75;;
41881;SDS011;27562;47.524;12.404;2023-04-10T00:47:22;10.50;;;5.82;;
41881;SDS011;27562;47.524;12.404;2023-04-10T00:49:47;11.77;;;6.10;;
41881;SDS011;27562;47.524;12.404;2023-04-10T00:52:14;11.73;;;6.35;;
41881;SDS011;27562;47.524;12.404;2023-04-10T00:54:40;14.68;;;6.88;;
41881;SDS011;27562;47.524;12.404;2023-04-10T00:59:35;14.32;;;6.93;;
41881;SDS011;27562;47.524;12.404;2023-04-10T01:02:01;13.10;;;6.68;;
41881;SDS011;27562;47.524;12.404;2023-04-10T01:04:27;11.68;;;6.95;;
41881;SDS011;27562;47.524;12.404;2023-04-10T01:09:34;13.02;;;6.22;;
41881;SDS011;27562;47.524;12.404;2023-04-10T01:17:57;12.80;;;6.78;;
41881;SDS011;27562;47.524;12.404;2023-04-10T01:20:30;13.23;;;7.32;;
41881;SDS011;27562;47.524;12.404;2023-04-10T01:25:53;13.93;;;6.78;;
41881;SDS011;27562;47.524;12.404;2023-04-10T01:28:28;14.10;;;7.28;;
41881;SDS011;27562;47.524;12.404;2023-04-10T01:31:20;11.02;;;5.03;;
41881;SDS011;27562;47.524;12.404;2023-04-10T01:33:59;11.02;;;6.10;;
41881;SDS011;27562;47.524;12.404;2023-04-10T01:36:34;11.57;;;6.57;;
41881;SDS011;27562;47.524;12.404;2023-04-10T01:39:04;12.40;;;6.25;;
41881;SDS011;27562;47.524;12.404;2023-04-10T01:41:31;9.23;;;5.20;;
41881;SDS011;27562;47.524;12.404;2023-04-10T01:43:58;11.80;;;6.28;;
41881;SDS011;27562;47.524;12.404;2023-04-10T01:46:26;10.90;;;5.80;;
41881;SDS011;27562;47.524;12.404;2023-04-10T01:48:53;11.40;;;6.20;;
41881;SDS011;27562;47.524;12.404;2023-04-10T01:51:20;11.23;;;5.70;;
41881;SDS011;27562;47.524;12.404;2023-04-10T01:53:47;10.73;;;6.00;;
41881;SDS011;27562;47.524;12.404;2023-04-10T01:56:14;10.88;;;6.30;;
41881;SDS011;27562;47.524;12.404;2023-04-10T01:58:41;11.05;;;6.07;;
41881;SDS011;27562;47.524;12.404;2023-04-10T02:01:07;15.07;;;7.50;;
41881;SDS011;27562;47.524;12.404;2023-04-10T02:03:34;17.83;;;8.65;;
41881;SDS011;27562;47.524;12.404;2023-04-10T02:09:07;14.38;;;7.65;;
41881;SDS011;27562;47.524;12.404;2023-04-10T02:14:24;27.90;;;13.40;;
41881;SDS011;27562;47.524;12.404;2023-04-10T02:16:54;20.48;;;10.05;;
41881;SDS011;27562;47.524;12.404;2023-04-10T02:19:25;12.48;;;6.95;;
41881;SDS011;27562;47.524;12.404;2023-04-10T02:21:52;13.20;;;6.47;;
41881;SDS011;27562;47.524;12.404;2023-04-10T02:24:19;11.63;;;5.88;;
41881;SDS011;27562;47.524;12.404;2023-04-10T02:26:49;13.30;;;5.90;;
41881;SDS011;27562;47.524;12.404;2023-04-10T02:29:15;11.05;;;6.15;;
41881;SDS011;27562;47.524;12.404;2023-04-10T02:31:42;11.20;;;5.78;;
41881;SDS011;27562;47.524;12.404;2023-04-10T02:34:08;10.88;;;6.10;;
41881;SDS011;27562;47.524;12.404;2023-04-10T02:36:35;8.70;;;5.50;;
41881;SDS011;27562;47.524;12.404;2023-04-10T02:39:01;9.82;;;5.28;;
41881;SDS011;27562;47.524;12.404;2023-04-10T02:41:27;9.90;;;5.47;;
41881;SDS011;27562;47.524;12.404;2023-04-10T02:43:53;10.75;;;5.20;;
41881;SDS011;27562;47.524;12.404;2023-04-10T02:46:19;8.55;;;5.10;;
41881;SDS011;27562;47.524;12.404;2023-04-10T02:48:45;9.23;;;5.50;;
41881;SDS011;27562;47.524;12.404;2023-04-10T02:51:11;9.20;;;5.55;;
41881;SDS011;27562;47.524;12.404;2023-04-10T02:53:37;12.57;;;6.40;;
41881;SDS011;27562;47.524;12.404;2023-04-10T02:56:03;11.15;;;6.22;;
41881;SDS011;27562;47.524;12.404;2023-04-10T02:58:32;11.18;;;5.75;;
41881;SDS011;27562;47.524;12.404;2023-04-10T03:00:58;11.00;;;6.15;;
41881;SDS011;27562;47.524;12.404;2023-04-10T03:03:23;15.23;;;7.60;;
41881;SDS011;27562;47.524;12.404;2023-04-10T03:05:49;14.32;;;7.90;;
41881;SDS011;27562;47.524;12.404;2023-04-10T03:08:15;16.10;;;7.80;;
41881;SDS011;27562;47.524;12.404;2023-04-10T03:10:42;15.73;;;7.75;;
41881;SDS011;27562;47.524;12.404;2023-04-10T03:13:09;13.85;;;7.65;;
41881;SDS011;27562;47.524;12.404;2023-04-10T03:15:36;13.60;;;7.20;;
41881;SDS011;27562;47.524;12.404;2023-04-10T03:18:05;12.68;;;7.20;;
41881;SDS011;27562;47.524;12.404;2023-04-10T03:20:31;13.25;;;6.85;;
41881;SDS011;27562;47.524;12.404;2023-04-10T03:23:00;13.45;;;6.55;;
41881;SDS011;27562;47.524;12.404;2023-04-10T03:25:27;16.92;;;6.80;;
41881;SDS011;27562;47.524;12.404;2023-04-10T03:27:52;13.70;;;7.20;;
41881;SDS011;27562;47.524;12.404;2023-04-10T03:30:18;11.90;;;6.05;;
41881;SDS011;27562;47.524;12.404;2023-04-10T03:32:44;11.25;;;6.10;;
41881;SDS011;27562;47.524;12.404;2023-04-10T03:35:10;14.10;;;6.35;;
41881;SDS011;27562;47.524;12.404;2023-04-10T03:37:36;10.82;;;5.82;;
41881;SDS011;27562;47.524;12.404;2023-04-10T03:40:05;12.48;;;6.57;;
41881;SDS011;27562;47.524;12.404;2023-04-10T03:42:36;13.80;;;6.75;;
41881;SDS011;27562;47.524;12.404;2023-04-10T03:45:01;12.82;;;6.85;;
41881;SDS011;27562;47.524;12.404;2023-04-10T03:47:31;12.88;;;6.97;;
41881;SDS011;27562;47.524;12.404;2023-04-10T03:49:57;14.82;;;7.00;;
41881;SDS011;27562;47.524;12.404;2023-04-10T03:52:23;14.85;;;7.20;;
41881;SDS011;27562;47.524;12.404;2023-04-10T03:54:50;19.90;;;8.98;;
41881;SDS011;27562;47.524;12.404;2023-04-10T03:57:16;16.70;;;7.93;;
41881;SDS011;27562;47.524;12.404;2023-04-10T03:59:43;15.63;;;7.63;;
41881;SDS011;27562;47.524;12.404;2023-04-10T04:02:09;16.67;;;8.73;;
41881;SDS011;27562;47.524;12.404;2023-04-10T04:04:35;16.30;;;7.72;;
41881;SDS011;27562;47.524;12.404;2023-04-10T04:07:00;15.60;;;7.18;;
41881;SDS011;27562;47.524;12.404;2023-04-10T04:09:26;14.18;;;7.45;;
41881;SDS011;27562;47.524;12.404;2023-04-10T04:11:52;14.95;;;7.60;;
41881;SDS011;27562;47.524;12.404;2023-04-10T04:14:17;12.90;;;6.43;;
41881;SDS011;27562;47.524;12.404;2023-04-10T04:16:43;15.73;;;8.48;;
41881;SDS011;27562;47.524;12.404;2023-04-10T04:19:09;15.13;;;8.02;;
41881;SDS011;27562;47.524;12.404;2023-04-10T04:21:35;14.90;;;7.75;;
41881;SDS011;27562;47.524;12.404;2023-04-10T04:24:00;14.57;;;7.93;;
41881;SDS011;27562;47.524;12.404;2023-04-10T04:26:26;15.85;;;7.78;;
41881;SDS011;27562;47.524;12.404;2023-04-10T04:28:52;16.17;;;8.05;;
41881;SDS011;27562;47.524;12.404;2023-04-10T04:31:17;16.63;;;8.35;;
41881;SDS011;27562;47.524;12.404;2023-04-10T04:33:43;16.83;;;8.05;;
41881;SDS011;27562;47.524;12.404;2023-04-10T04:36:09;18.58;;;8.02;;
41881;SDS011;27562;47.524;12.404;2023-04-10T04:38:35;16.02;;;8.18;;
41881;SDS011;27562;47.524;12.404;2023-04-10T04:41:00;16.15;;;8.43;;
41881;SDS011;27562;47.524;12.404;2023-04-10T04:43:26;18.25;;;8.65;;
41881;SDS011;27562;47.524;12.404;2023-04-10T04:45:51;17.58;;;9.30;;
41881;SDS011;27562;47.524;12.404;2023-04-10T04:48:17;16.33;;;8.73;;
41881;SDS011;27562;47.524;12.404;2023-04-10T04:50:43;15.98;;;7.82;;
41881;SDS011;27562;47.524;12.404;2023-04-10T04:53:08;13.43;;;7.35;;
41881;SDS011;27562;47.524;12.404;2023-04-10T04:55:34;17.95;;;8.68;;
41881;SDS011;27562;47.524;12.404;2023-04-10T04:58:00;19.10;;;9.35;;
41881;SDS011;27562;47.524;12.404;2023-04-10T05:00:25;18.85;;;10.00;;
41881;SDS011;27562;47.524;12.404;2023-04-10T05:02:51;20.63;;;9.85;;
41881;SDS011;27562;47.524;12.404;2023-04-10T05:05:17;16.30;;;8.00;;
41881;SDS011;27562;47.524;12.404;2023-04-10T05:07:42;19.65;;;8.75;;
41881;SDS011;27562;47.524;12.404;2023-04-10T05:10:08;22.15;;;9.57;;
41881;SDS011;27562;47.524;12.404;2023-04-10T05:12:34;16.92;;;8.65;;
41881;SDS011;27562;47.524;12.404;2023-04-10T05:15:00;17.23;;;8.95;;
41881;SDS011;27562;47.524;12.404;2023-04-10T05:17:25;17.25;;;8.73;;
41881;SDS011;27562;47.524;12.404;2023-04-10T05:19:51;19.13;;;8.60;;
41881;SDS011;27562;47.524;12.404;2023-04-10T05:22:17;17.80;;;8.82;;
41881;SDS011;27562;47.524;12.404;2023-04-10T05:24:42;19.33;;;9.73;;
41881;SDS011;27562;47.524;12.404;2023-04-10T05:27:08;17.67;;;8.90;;
41881;SDS011;27562;47.524;12.404;2023-04-10T05:29:34;18.42;;;9.20;;
41881;SDS011;27562;47.524;12.404;2023-04-10T05:32:00;16.48;;;8.45;;
41881;SDS011;27562;47.524;12.404;2023-04-10T05:34:25;15.35;;;7.85;;
41881;SDS011;27562;47.524;12.404;2023-04-10T05:36:51;17.30;;;9.23;;
41881;SDS011;27562;47.524;12.404;2023-04-10T05:39:17;17.95;;;8.60;;
41881;SDS011;27562;47.524;12.404;2023-04-10T05:41:42;17.02;;;8.00;;
41881;SDS011;27562;47.524;12.404;2023-04-10T05:44:08;15.02;;;7.85;;
41881;SDS011;27562;47.524;12.404;2023-04-10T05:46:34;14.52;;;7.30;;
41881;SDS011;27562;47.524;12.404;2023-04-10T05:48:59;13.82;;;7.10;;
41881;SDS011;27562;47.524;12.404;2023-04-10T05:51:25;18.60;;;9.30;;
41881;SDS011;27562;47.524;12.404;2023-04-10T05:53:51;14.45;;;7.95;;
41881;SDS011;27562;47.524;12.404;2023-04-10T05:56:17;14.90;;;8.10;;
41881;SDS011;27562;47.524;12.404;2023-04-10T05:58:42;13.73;;;7.55;;
41881;SDS011;27562;47.524;12.404;2023-04-10T06:01:08;16.08;;;8.13;;
41881;SDS011;27562;47.524;12.404;2023-04-10T06:03:35;13.27;;;7.63;;
41881;SDS011;27562;47.524;12.404;2023-04-10T06:06:01;12.52;;;7.35;;
41881;SDS011;27562;47.524;12.404;2023-04-10T06:08:27;13.93;;;8.20;;
41881;SDS011;27562;47.524;12.404;2023-04-10T06:10:53;18.05;;;9.88;;
41881;SDS011;27562;47.524;12.404;2023-04-10T06:13:18;17.00;;;9.13;;
41881;SDS011;27562;47.524;12.404;2023-04-10T06:15:44;22.60;;;10.55;;
41881;SDS011;27562;47.524;12.404;2023-04-10T06:18:10;20.85;;;12.35;;
41881;SDS011;27562;47.524;12.404;2023-04-10T06:20:35;23.10;;;10.95;;
41881;SDS011;27562;47.524;12.404;2023-04-10T06:23:01;27.67;;;14.65;;
41881;SDS011;27562;47.524;12.404;2023-04-10T06:25:27;18.83;;;9.90;;
41881;SDS011;27562;47.524;12.404;2023-04-10T06:27:53;18.95;;;9.43;;
41881;SDS011;27562;47.524;12.404;2023-04-10T06:30:19;16.90;;;9.23;;
41881;SDS011;27562;47.524;12.404;2023-04-10T06:32:44;21.08;;;10.48;;
41881;SDS011;27562;47.524;12.404;2023-04-10T06:35:10;24.85;;;13.15;;
41881;SDS011;27562;47.524;12.404;2023-04-10T06:37:37;23.40;;;12.32;;
41881;SDS011;27562;47.524;12.404;2023-04-10T06:40:06;24.63;;;12.50;;
41881;SDS011;27562;47.524;12.404;2023-04-10T06:42:33;20.92;;;11.68;;
41881;SDS011;27562;47.524;12.404;2023-04-10T06:44:59;21.35;;;10.73;;
41881;SDS011;27562;47.524;12.404;2023-04-10T06:47:25;25.15;;;12.30;;
41881;SDS011;27562;47.524;12.404;2023-04-10T06:49:51;26.02;;;11.80;;
41881;SDS011;27562;47.524;12.404;2023-04-10T06:52:16;22.90;;;11.23;;
41881;SDS011;27562;47.524;12.404;2023-04-10T06:54:42;19.55;;;10.52;;
41881;SDS011;27562;47.524;12.404;2023-04-10T06:57:08;23.30;;;11.48;;
41881;SDS011;27562;47.524;12.404;2023-04-10T06:59:34;20.88;;;11.43;;
41881;SDS011;27562;47.524;12.404;2023-04-10T07:02:03;21.55;;;12.18;;
41881;SDS011;27562;47.524;12.404;2023-04-10T07:04:29;24.90;;;13.30;;
41881;SDS011;27562;47.524;12.404;2023-04-10T07:06:55;24.20;;;11.65;;
41881;SDS011;27562;47.524;12.404;2023-04-10T07:09:21;22.33;;;12.40;;
41881;SDS011;27562;47.524;12.404;2023-04-10T07:11:48;20.05;;;11.80;;
41881;SDS011;27562;47.524;12.404;2023-04-10T07:14:14;24.45;;;13.35;;
41881;SDS011;27562;47.524;12.404;2023-04-10T07:16:39;23.33;;;12.10;;
41881;SDS011;27562;47.524;12.404;2023-04-10T07:19:05;26.95;;;12.20;;
41881;SDS011;27562;47.524;12.404;2023-04-10T07:21:31;29.08;;;15.70;;
41881;SDS011;27562;47.524;12.404;2023-04-10T07:23:57;23.65;;;12.35;;
41881;SDS011;27562;47.524;12.404;2023-04-10T07:26:22;19.40;;;10.57;;
41881;SDS011;27562;47.524;12.404;2023-04-10T07:28:49;20.63;;;10.55;;
41881;SDS011;27562;47.524;12.404;2023-04-10T07:36:19;18.75;;;9.98;;
41881;SDS011;27562;47.524;12.404;2023-04-10T07:38:44;17.58;;;8.77;;
41881;SDS011;27562;47.524;12.404;2023-04-10T07:41:10;16.17;;;8.73;;
41881;SDS011;27562;47.524;12.404;2023-04-10T07:43:36;15.95;;;8.68;;
41881;SDS011;27562;47.524;12.404;2023-04-10T07:46:01;15.07;;;8.68;;
41881;SDS011;27562;47.524;12.404;2023-04-10T07:48:27;12.98;;;7.60;;
41881;SDS011;27562;47.524;12.404;2023-04-10T07:50:53;13.27;;;7.93;;
41881;SDS011;27562;47.524;12.404;2023-04-10T07:53:19;17.25;;;9.57;;
41881;SDS011;27562;47.524;12.404;2023-04-10T07:55:45;13.75;;;7.97;;
41881;SDS011;27562;47.524;12.404;2023-04-10T07:58:13;17.33;;;9.63;;
41881;SDS011;27562;47.524;12.404;2023-04-10T08:00:40;19.70;;;11.45;;
41881;SDS011;27562;47.524;12.404;2023-04-10T08:03:06;15.05;;;9.57;;
41881;SDS011;27562;47.524;12.404;2023-04-10T08:05:32;14.70;;;8.98;;
41881;SDS011;27562;47.524;12.404;2023-04-10T08:07:58;15.07;;;8.90;;
41881;SDS011;27562;47.524;12.404;2023-04-10T08:10:24;15.02;;;8.65;;
41881;SDS011;27562;47.524;12.404;2023-04-10T08:12:50;16.52;;;9.23;;
41881;SDS011;27562;47.524;12.404;2023-04-10T08:15:16;12.90;;;7.88;;
41881;SDS011;27562;47.524;12.404;2023-04-10T08:17:42;14.95;;;7.90;;
41881;SDS011;27562;47.524;12.404;2023-04-10T08:20:08;12.95;;;6.78;;
41881;SDS011;27562;47.524;12.404;2023-04-10T08:22:35;11.85;;;7.95;;
41881;SDS011;27562;47.524;12.404;2023-04-10T08:25:01;12.68;;;7.43;;
41881;SDS011;27562;47.524;12.404;2023-04-10T08:27:27;12.30;;;7.63;;
41881;SDS011;27562;47.524;12.404;2023-04-10T08:29:54;12.57;;;7.78;;
41881;SDS011;27562;47.524;12.404;2023-04-10T08:32:20;11.52;;;7.22;;
41881;SDS011;27562;47.524;12.404;2023-04-10T08:34:46;12.73;;;7.30;;
41881;SDS011;27562;47.524;12.404;2023-04-10T08:37:11;11.82;;;7.30;;
41881;SDS011;27562;47.524;12.404;2023-04-10T08:39:39;11.90;;;7.10;;
41881;SDS011;27562;47.524;12.404;2023-04-10T08:42:06;12.52;;;6.90;;
41881;SDS011;27562;47.524;12.404;2023-04-10T08:44:32;10.18;;;6.32;;
41881;SDS011;27562;47.524;12.404;2023-04-10T08:46:59;10.90;;;5.93;;
41881;SDS011;27562;47.524;12.404;2023-04-10T08:52:14;10.27;;;6.20;;
41881;SDS011;27562;47.524;12.404;2023-04-10T08:54:46;9.77;;;6.30;;
41881;SDS011;27562;47.524;12.404;2023-04-10T08:57:15;9.63;;;6.03;;
41881;SDS011;27562;47.524;12.404;2023-04-10T08:59:48;10.00;;;6.22;;
41881;SDS011;27562;47.524;12.404;2023-04-10T09:02:15;10.00;;;6.40;;
41881;SDS011;27562;47.524;12.404;2023-04-10T09:04:49;10.00;;;6.28;;
41881;SDS011;27562;47.524;12.404;2023-04-10T09:07:16;9.20;;;5.75;;
41881;SDS011;27562;47.524;12.404;2023-04-10T09:09:42;9.95;;;6.50;;
41881;SDS011;27562;47.524;12.404;2023-04-10T09:12:08;8.07;;;5.28;;
41881;SDS011;27562;47.524;12.404;2023-04-10T09:14:35;7.22;;;4.57;;
41881;SDS011;27562;47.524;12.404;2023-04-10T09:17:11;7.55;;;4.63;;
41881;SDS011;27562;47.524;12.404;2023-04-10T09:19:42;6.30;;;4.10;;
41881;SDS011;27562;47.524;12.404;2023-04-10T09:22:10;8.82;;;5.25;;
41881;SDS011;27562;47.524;12.404;2023-04-10T09:24:36;8.38;;;5.13;;
41881;SDS011;27562;47.524;12.404;2023-04-10T09:27:06;6.63;;;4.30;;
41881;SDS011;27562;47.524;12.404;2023-04-10T09:29:45;7.22;;;5.03;;
41881;SDS011;27562;47.524;12.404;2023-04-10T09:35:01;5.40;;;3.78;;
41881;SDS011;27562;47.524;12.404;2023-04-10T09:37:32;5.78;;;3.67;;
41881;SDS011;27562;47.524;12.404;2023-04-10T09:39:58;6.60;;;3.60;;
41881;SDS011;27562;47.524;12.404;2023-04-10T09:42:31;6.55;;;3.35;;
41881;SDS011;27562;47.524;12.404;2023-04-10T09:45:03;5.40;;;3.45;;
41881;SDS011;27562;47.524;12.404;2023-04-10T09:47:30;5.13;;;3.35;;
41881;SDS011;27562;47.524;12.404;2023-04-10T09:49:57;5.05;;;3.20;;
41881;SDS011;27562;47.524;12.404;2023-04-10T09:52:30;5.03;;;3.10;;
41881;SDS011;27562;47.524;12.404;2023-04-10T09:54:58;5.18;;;3.25;;
41881;SDS011;27562;47.524;12.404;2023-04-10T09:57:30;3.53;;;2.58;;
41881;SDS011;27562;47.524;12.404;2023-04-10T10:00:00;5.53;;;4.00;;
41881;SDS011;27562;47.524;12.404;2023-04-10T10:02:28;5.30;;;3.30;;
41881;SDS011;27562;47.524;12.404;2023-04-10T10:04:55;6.07;;;3.78;;
41881;SDS011;27562;47.524;12.404;2023-04-10T10:07:24;7.43;;;5.20;;
41881;SDS011;27562;47.524;12.404;2023-04-10T10:09:51;5.18;;;3.42;;
41881;SDS011;27562;47.524;12.404;2023-04-10T10:12:28;4.93;;;3.38;;
41881;SDS011;27562;47.524;12.404;2023-04-10T10:17:51;5.15;;;3.15;;
41881;SDS011;27562;47.524;12.404;2023-04-10T10:20:18;5.38;;;3.55;;
41881;SDS011;27562;47.524;12.404;2023-04-10T10:22:46;5.30;;;3.20;;
41881;SDS011;27562;47.524;12.404;2023-04-10T10:25:14;5.07;;;3.20;;
41881;SDS011;27562;47.524;12.404;2023-04-10T10:27:40;5.55;;;2.60;;
41881;SDS011;27562;47.524;12.404;2023-04-10T10:30:06;4.30;;;2.60;;
41881;SDS011;27562;47.524;12.404;2023-04-10T10:32:36;4.70;;;3.38;;
41881;SDS011;27562;47.524;12.404;2023-04-10T10:35:03;4.68;;;2.88;;
41881;SDS011;27562;47.524;12.404;2023-04-10T10:37:31;5.18;;;3.28;;
41881;SDS011;27562;47.524;12.404;2023-04-10T10:42:59;5.53;;;3.47;;
41881;SDS011;27562;47.524;12.404;2023-04-10T10:45:47;4.57;;;2.80;;
41881;SDS011;27562;47.524;12.404;2023-04-10T10:48:17;5.10;;;3.15;;
41881;SDS011;27562;47.524;12.404;2023-04-10T10:50:50;5.68;;;3.83;;
41881;SDS011;27562;47.524;12.404;2023-04-10T10:53:37;5.03;;;3.38;;
41881;SDS011;27562;47.524;12.404;2023-04-10T10:58:49;5.47;;;3.92;;
41881;SDS011;27562;47.524;12.404;2023-04-10T11:01:16;4.47;;;3.15;;
41881;SDS011;27562;47.524;12.404;2023-04-10T11:03:44;5.07;;;3.97;;
41881;SDS011;27562;47.524;12.404;2023-04-10T11:06:17;4.63;;;3.20;;
41881;SDS011;27562;47.524;12.404;2023-04-10T11:11:21;5.68;;;3.58;;
41881;SDS011;27562;47.524;12.404;2023-04-10T11:16:18;4.05;;;2.53;;
41881;SDS011;27562;47.524;12.404;2023-04-10T11:21:17;5.32;;;3.25;;
41881;SDS011;27562;47.524;12.404;2023-04-10T11:31:42;3.45;;;2.63;;
41881;SDS011;27562;47.524;12.404;2023-04-10T11:34:09;5.28;;;3.13;;
41881;SDS011;27562;47.524;12.404;2023-04-10T11:36:39;4.75;;;2.80;;
41881;SDS011;27562;47.524;12.404;2023-04-10T11:39:07;4.20;;;2.80;;
41881;SDS011;27562;47.524;12.404;2023-04-10T11:41:36;3.97;;;2.78;;
41881;SDS011;27562;47.524;12.404;2023-04-10T11:44:04;3.53;;;2.67;;
41881;SDS011;27562;47.524;12.404;2023-04-10T11:46:49;4.35;;;2.90;;
41881;SDS011;27562;47.524;12.404;2023-04-10T11:49:16;4.28;;;2.63;;
41881;SDS011;27562;47.524;12.404;2023-04-10T11:51:47;3.85;;;2.63;;
41881;SDS011;27562;47.524;12.404;2023-04-10T11:56:42;3.40;;;2.45;;
41881;SDS011;27562;47.524;12.404;2023-04-10T11:59:11;4.28;;;2.78;;
41881;SDS011;27562;47.524;12.404;2023-04-10T12:01:43;3.63;;;2.45;;
41881;SDS011;27562;47.524;12.404;2023-04-10T12:04:17;3.92;;;2.60;;
41881;SDS011;27562;47.524;12.404;2023-04-10T12:06:51;3.92;;;2.60;;
41881;SDS011;27562;47.524;12.404;2023-04-10T12:09:20;3.22;;;2.20;;
41881;SDS011;27562;47.524;12.404;2023-04-10T12:11:50;4.97;;;2.28;;
41881;SDS011;27562;47.524;12.404;2023-04-10T12:14:18;3.33;;;2.00;;
41881;SDS011;27562;47.524;12.404;2023-04-10T12:16:45;3.33;;;2.10;;
41881;SDS011;27562;47.524;12.404;2023-04-10T12:19:12;3.25;;;2.10;;
41881;SDS011;27562;47.524;12.404;2023-04-10T12:21:38;4.43;;;2.83;;
41881;SDS011;27562;47.524;12.404;2023-04-10T12:24:08;3.80;;;2.35;;
41881;SDS011;27562;47.524;12.404;2023-04-10T12:26:35;7.63;;;4.50;;
41881;SDS011;27562;47.524;12.404;2023-04-10T12:29:00;6.53;;;4.55;;
41881;SDS011;27562;47.524;12.404;2023-04-10T12:31:30;3.85;;;2.75;;
41881;SDS011;27562;47.524;12.404;2023-04-10T12:34:01;3.40;;;2.15;;
41881;SDS011;27562;47.524;12.404;2023-04-10T12:36:29;3.42;;;2.25;;
41881;SDS011;27562;47.524;12.404;2023-04-10T12:38:59;3.78;;;2.65;;
41881;SDS011;27562;47.524;12.404;2023-04-10T12:41:27;8.15;;;1.88;;
41881;SDS011;27562;47.524;12.404;2023-04-10T12:44:08;2.60;;;1.70;;
41881;SDS011;27562;47.524;12.404;2023-04-10T12:46:35;3.03;;;1.83;;
41881;SDS011;27562;47.524;12.404;2023-04-10T12:49:14;3.33;;;1.92;;
41881;SDS011;27562;47.524;12.404;2023-04-10T12:51:45;3.78;;;2.40;;
41881;SDS011;27562;47.524;12.404;2023-04-10T12:54:45;3.47;;;2.08;;
41881;SDS011;27562;47.524;12.404;2023-04-10T12:57:04;3.25;;;2.00;;
41881;SDS011;27562;47.524;12.404;2023-04-10T12:59:30;2.60;;;1.88;;
41881;SDS011;27562;47.524;12.404;2023-04-10T13:01:56;2.92;;;2.05;;
41881;SDS011;27562;47.524;12.404;2023-04-10T13:04:22;4.35;;;2.60;;
41881;SDS011;27562;47.524;12.404;2023-04-10T13:06:48;3.85;;;2.60;;
41881;SDS011;27562;47.524;12.404;2023-04-10T13:09:16;3.17;;;2.20;;
41881;SDS011;27562;47.524;12.404;2023-04-10T13:11:42;4.10;;;2.92;;
41881;SDS011;27562;47.524;12.404;2023-04-10T13:14:08;3.47;;;2.13;;
41881;SDS011;27562;47.524;12.404;2023-04-10T13:16:35;4.03;;;2.42;;
41881;SDS011;27562;47.524;12.404;2023-04-10T13:19:01;3.45;;;2.00;;
41881;SDS011;27562;47.524;12.404;2023-04-10T13:21:27;2.92;;;1.90;;
41881;SDS011;27562;47.524;12.404;2023-04-10T13:23:55;2.30;;;1.50;;
41881;SDS011;27562;47.524;12.404;2023-04-10T13:26:22;2.45;;;1.70;;
41881;SDS011;27562;47.524;12.404;2023-04-10T13:28:48;2.85;;;1.85;;
41881;SDS011;27562;47.524;12.404;2023-04-10T13:31:14;2.38;;;1.60;;
41881;SDS011;27562;47.524;12.404;2023-04-10T13:33:40;3.00;;;2.00;;
41881;SDS011;27562;47.524;12.404;2023-04-10T13:36:11;2.40;;;1.55;;
41881;SDS011;27562;47.524;12.404;2023-04-10T13:38:40;2.95;;;2.13;;
41881;SDS011;27562;47.524;12.404;2023-04-10T13:41:06;2.90;;;1.75;;
41881;SDS011;27562;47.524;12.404;2023-04-10T13:43:32;3.92;;;2.42;;
41881;SDS011;27562;47.524;12.404;2023-04-10T13:45:57;3.55;;;2.20;;
41881;SDS011;27562;47.524;12.404;2023-04-10T13:48:23;3.05;;;2.20;;
41881;SDS011;27562;47.524;12.404;2023-04-10T13:50:49;2.78;;;2.00;;
41881;SDS011;27562;47.524;12.404;2023-04-10T13:53:14;2.92;;;2.10;;
41881;SDS011;27562;47.524;12.404;2023-04-10T13:55:40;3.45;;;1.85;;
41881;SDS011;27562;47.524;12.404;2023-04-10T13:58:07;2.55;;;1.77;;
41881;SDS011;27562;47.524;12.404;2023-04-10T14:00:41;3.38;;;2.10;;
41881;SDS011;27562;47.524;12.404;2023-04-10T14:03:08;3.00;;;2.05;;
41881;SDS011;27562;47.524;12.404;2023-04-10T14:05:36;3.13;;;1.85;;
41881;SDS011;27562;47.524;12.404;2023-04-10T14:08:05;2.85;;;2.13;;
41881;SDS011;27562;47.524;12.404;2023-04-10T14:10:30;3.28;;;2.05;;
41881;SDS011;27562;47.524;12.404;2023-04-10T14:12:56;4.40;;;2.38;;
41881;SDS011;27562;47.524;12.404;2023-04-10T14:15:22;3.13;;;2.10;;
41881;SDS011;27562;47.524;12.404;2023-04-10T14:17:48;2.90;;;2.20;;
41881;SDS011;27562;47.524;12.404;2023-04-10T14:20:13;3.20;;;2.00;;
41881;SDS011;27562;47.524;12.404;2023-04-10T14:22:39;2.67;;;1.88;;
41881;SDS011;27562;47.524;12.404;2023-04-10T14:25:05;2.53;;;1.80;;
41881;SDS011;27562;47.524;12.404;2023-04-10T14:27:31;2.65;;;1.80;;
41881;SDS011;27562;47.524;12.404;2023-04-10T14:29:57;2.65;;;1.73;;
41881;SDS011;27562;47.524;12.404;2023-04-10T14:32:23;2.80;;;1.80;;
41881;SDS011;27562;47.524;12.404;2023-04-10T14:34:48;2.60;;;1.80;;
41881;SDS011;27562;47.524;12.404;2023-04-10T14:37:14;2.47;;;1.80;;
41881;SDS011;27562;47.524;12.404;2023-04-10T14:39:40;3.47;;;1.85;;
41881;SDS011;27562;47.524;12.404;2023-04-10T14:42:05;2.63;;;1.90;;
41881;SDS011;27562;47.524;12.404;2023-04-10T14:44:31;2.88;;;1.88;;
41881;SDS011;27562;47.524;12.404;2023-04-10T14:46:57;2.80;;;1.70;;
41881;SDS011;27562;47.524;12.404;2023-04-10T14:49:23;2.83;;;1.75;;
41881;SDS011;27562;47.524;12.404;2023-04-10T14:51:48;2.90;;;1.65;;
41881;SDS011;27562;47.524;12.404;2023-04-10T14:54:14;3.28;;;2.00;;
41881;SDS011;27562;47.524;12.404;2023-04-10T14:56:46;2.90;;;1.70;;
41881;SDS011;27562;47.524;12.404;2023-04-10T14:59:12;2.40;;;1.50;;
41881;SDS011;27562;47.524;12.404;2023-04-10T15:01:38;2.70;;;1.52;;
41881;SDS011;27562;47.524;12.404;2023-04-10T15:04:04;2.80;;;1.88;;
41881;SDS011;27562;47.524;12.404;2023-04-10T15:06:31;2.40;;;1.45;;
41881;SDS011;27562;47.524;12.404;2023-04-10T15:08:57;2.65;;;1.60;;
41881;SDS011;27562;47.524;12.404;2023-04-10T15:11:23;2.33;;;1.40;;
41881;SDS011;27562;47.524;12.404;2023-04-10T15:13:48;2.67;;;1.50;;
41881;SDS011;27562;47.524;12.404;2023-04-10T15:16:14;3.05;;;2.05;;
41881;SDS011;27562;47.524;12.404;2023-04-10T15:18:41;2.45;;;1.65;;
41881;SDS011;27562;47.524;12.404;2023-04-10T15:21:06;3.85;;;2.45;;
41881;SDS011;27562;47.524;12.404;2023-04-10T15:23:32;8.52;;;2.10;;